Time;durP1;ratioP1;P1;durP2;ratioP2;P2;SDS_P1;SDS_P2;PMS_P1;PMS_P2;Temp;Humidity;BMP_temperature;BMP_pressure;BME280_temperature;BME280_humidity;BME280_pressure;Samples;Min_cycle;Max_cycle;Signal;HPM_P1;HPM_P2
2022/01/24 00:01:49;;;;;;;90.75;39.72;;;;;;;-1.37;100.00;102357.06;4975701;28;20047;-70
2022/01/24 00:04:18;;;;;;;95.43;41.30;;;;;;;-1.28;100.00;102359.81;4967765;28;20801;-70
2022/01/24 00:06:45;;;;;;;93.70;40.03;;;;;;;-1.17;100.00;102356.84;4966692;28;20058;-70
2022/01/24 00:09:15;;;;;;;97.60;40.13;;;;;;;-1.25;100.00;102354.13;4974150;28;20054;-70
2022/01/24 00:17:13;;;;;;;103.47;41.15;;;;;;;-1.37;100.00;102357.06;4975256;28;20066;-70
2022/01/24 00:28:12;;;;;;;82.95;37.42;;;;;;;-1.19;100.00;102364.22;4974521;28;20082;-69
2022/01/24 00:30:40;;;;;;;93.45;40.38;;;;;;;-1.11;100.00;102363.44;4957418;28;20489;-70
2022/01/24 00:33:08;;;;;;;102.13;43.17;;;;;;;-1.25;100.00;102359.50;4973674;28;20050;-69
2022/01/24 00:35:35;;;;;;;90.90;40.42;;;;;;;-1.25;100.00;102359.50;4963780;28;20074;-69
2022/01/24 00:38:03;;;;;;;101.35;40.78;;;;;;;-1.36;100.00;102355.22;4952331;28;20054;-67
2022/01/24 00:40:36;;;;;;;88.88;37.53;;;;;;;-1.45;100.00;102348.94;4962060;28;20058;-70
2022/01/24 00:43:15;;;;;;;88.78;37.42;;;;;;;-1.49;100.00;102342.19;4974827;28;20525;-70
2022/01/24 00:53:50;;;;;;;86.18;36.63;;;;;;;-1.48;100.00;102333.13;4974402;28;20058;-70
2022/01/24 00:56:19;;;;;;;88.32;37.58;;;;;;;-1.47;100.00;102339.34;4975314;28;20042;-70
2022/01/24 00:58:47;;;;;;;80.68;35.63;;;;;;;-1.44;100.00;102337.19;4974575;28;20484;-70
2022/01/24 01:01:15;;;;;;;85.38;37.92;;;;;;;-1.44;100.00;102344.41;4974341;28;20054;-70
2022/01/24 01:03:43;;;;;;;86.60;35.83;;;;;;;-1.43;100.00;102336.19;4973778;28;20067;-70
2022/01/24 01:06:12;;;;;;;81.28;34.20;;;;;;;-1.45;100.00;102332.81;4974036;28;20046;-69
2022/01/24 01:19:50;;;;;;;75.20;32.88;;;;;;;-1.46;100.00;102336.53;4974223;28;20047;-70
2022/01/24 01:22:18;;;;;;;73.65;32.58;;;;;;;-1.44;100.00;102330.97;4970177;28;20051;-70
2022/01/24 01:24:51;;;;;;;85.63;34.50;;;;;;;-1.48;100.00;102338.50;4962791;28;20051;-70
2022/01/24 01:27:27;;;;;;;86.32;34.97;;;;;;;-1.52;100.00;102337.16;4966595;28;20054;-70
2022/01/24 01:30:04;;;;;;;71.00;32.03;;;;;;;-1.52;100.00;102329.09;4972494;28;20050;-69
2022/01/24 01:57:18;;;;;;;73.05;33.65;;;;;;;-1.50;100.00;102308.28;4972628;28;20062;-70
2022/01/24 01:59:46;;;;;;;73.13;32.60;;;;;;;-1.53;100.00;102297.84;4973943;28;20047;-69
2022/01/24 02:02:15;;;;;;;78.30;32.88;;;;;;;-1.53;100.00;102304.06;4973421;28;20050;-70
2022/01/24 02:04:43;;;;;;;80.43;30.63;;;;;;;-1.55;100.00;102297.16;4973138;28;20055;-70
2022/01/24 02:07:12;;;;;;;75.65;33.70;;;;;;;-1.38;100.00;102296.28;4973304;28;20065;-69
2022/01/24 02:09:42;;;;;;;83.60;33.10;;;;;;;-1.31;100.00;102292.97;4968983;28;20048;-70
2022/01/24 02:12:11;;;;;;;81.30;33.10;;;;;;;-1.36;100.00;102296.94;4964293;28;20048;-69
2022/01/24 02:14:46;;;;;;;78.95;31.48;;;;;;;-1.49;100.00;102296.53;4973230;28;20054;-69
2022/01/24 02:17:21;;;;;;;70.75;29.25;;;;;;;-1.32;100.00;102294.78;4973689;28;20062;-69
2022/01/24 02:22:48;;;;;;;79.10;31.73;;;;;;;-1.46;100.00;102281.94;4972807;28;20051;-69
2022/01/24 02:25:26;;;;;;;69.68;30.08;;;;;;;-1.49;100.00;102288.47;4972617;28;20047;-69
2022/01/24 02:27:57;;;;;;;66.57;28.08;;;;;;;-1.53;100.00;102289.78;4973477;28;20061;-69
2022/01/24 02:32:55;;;;;;;70.43;29.77;;;;;;;-1.58;100.00;102290.25;4972937;28;20653;-69
2022/01/24 02:35:23;;;;;;;58.50;27.88;;;;;;;-1.65;100.00;102295.41;4972890;28;20061;-69
2022/01/24 02:37:51;;;;;;;59.50;28.00;;;;;;;-1.65;100.00;102292.72;4972986;28;20058;-69
2022/01/24 02:40:20;;;;;;;67.63;28.73;;;;;;;-1.67;100.00;102289.34;4972831;28;20051;-69
2022/01/24 02:48:25;;;;;;;57.75;26.67;;;;;;;-1.73;100.00;102289.97;4972608;28;20074;-69
2022/01/24 02:53:39;;;;;;;63.95;27.20;;;;;;;-1.68;100.00;102279.63;4972618;28;20054;-69
2022/01/24 02:56:08;;;;;;;56.78;26.67;;;;;;;-1.57;100.00;102270.47;4972915;28;20486;-69
2022/01/24 02:58:36;;;;;;;65.03;26.92;;;;;;;-1.49;100.00;102269.69;4973062;28;20065;-69
2022/01/24 03:01:07;;;;;;;64.53;25.67;;;;;;;-1.52;100.00;102262.78;4972192;28;20055;-69
2022/01/24 03:03:36;;;;;;;66.63;26.35;;;;;;;-1.56;100.00;102257.88;4971833;28;20059;-69
2022/01/24 03:06:05;;;;;;;63.90;25.92;;;;;;;-1.63;100.00;102247.78;4972809;28;20057;-69
2022/01/24 03:08:37;;;;;;;63.55;24.60;;;;;;;-1.66;100.00;102256.13;4972651;28;20047;-69
2022/01/24 03:11:05;;;;;;;50.88;24.55;;;;;;;-1.64;100.00;102254.16;4958958;28;20054;-69
2022/01/24 03:13:33;;;;;;;60.70;24.50;;;;;;;-1.69;100.00;102259.16;4971942;28;20057;-69
2022/01/24 03:16:03;;;;;;;56.15;24.73;;;;;;;-1.68;100.00;102250.09;4972100;28;20058;-69
2022/01/24 03:18:32;;;;;;;51.88;26.30;;;;;;;-1.69;100.00;102244.88;4972661;28;20055;-69
2022/01/24 03:21:01;;;;;;;53.60;24.67;;;;;;;-1.54;100.00;102253.19;4973119;28;20513;-69
2022/01/24 03:23:29;;;;;;;61.33;25.73;;;;;;;-1.55;100.00;102247.00;4972424;28;20042;-69
2022/01/24 03:25:57;;;;;;;56.50;24.23;;;;;;;-1.58;100.00;102249.97;4972530;28;20054;-69
2022/01/24 03:28:25;;;;;;;58.55;24.98;;;;;;;-1.59;100.00;102250.13;4972305;28;20054;-69
2022/01/24 03:30:54;;;;;;;53.20;22.58;;;;;;;-1.60;100.00;102253.81;4972454;28;20062;-69
2022/01/24 03:33:22;;;;;;;52.72;24.48;;;;;;;-1.55;100.00;102256.88;4971907;28;20054;-69
2022/01/24 03:35:50;;;;;;;55.33;23.98;;;;;;;-1.46;100.00;102253.25;4972249;28;20047;-69
2022/01/24 03:38:18;;;;;;;56.10;24.70;;;;;;;-1.46;100.00;102249.72;4971766;28;20058;-69
2022/01/24 03:40:46;;;;;;;51.78;22.90;;;;;;;-1.57;100.00;102240.09;4971567;28;20062;-69
2022/01/24 03:43:14;;;;;;;63.08;24.10;;;;;;;-1.64;100.00;102235.38;4972247;28;20051;-69
2022/01/24 03:45:48;;;;;;;45.88;22.40;;;;;;;-1.67;100.00;102232.16;4971877;28;20401;-69
2022/01/24 03:51:04;;;;;;;50.53;21.92;;;;;;;-1.73;100.00;102228.22;4954973;28;20055;-69
2022/01/24 03:53:32;;;;;;;51.15;21.77;;;;;;;-1.66;100.00;102240.03;4972031;28;20055;-69
2022/01/24 03:56:00;;;;;;;56.72;22.02;;;;;;;-1.58;100.00;102233.03;4972186;28;20054;-69
2022/01/24 03:58:28;;;;;;;48.95;22.10;;;;;;;-1.62;100.00;102219.94;4972258;28;20524;-69
2022/01/24 04:00:57;;;;;;;43.85;20.50;;;;;;;-1.67;100.00;102216.88;4943574;28;20043;-69
2022/01/24 04:03:26;;;;;;;45.30;20.65;;;;;;;-1.73;100.00;102214.81;4975323;28;20058;-69
2022/01/24 04:05:54;;;;;;;51.20;22.38;;;;;;;-1.79;100.00;102216.31;4975736;28;20058;-69
2022/01/24 04:08:22;;;;;;;49.50;21.13;;;;;;;-1.80;100.00;102221.81;4957829;28;20054;-69
2022/01/24 04:10:54;;;;;;;54.75;23.27;;;;;;;-1.82;100.00;102221.13;4962649;28;20380;-69
2022/01/24 04:13:28;;;;;;;42.17;19.90;;;;;;;-1.88;100.00;102219.91;4962076;28;20046;-69
2022/01/24 04:16:24;;;;;;;47.60;21.00;;;;;;;-1.93;100.00;102216.84;4975651;28;20046;-69
2022/01/24 04:21:33;;;;;;;55.13;21.00;;;;;;;-1.90;100.00;102212.00;4972144;28;20058;-69
2022/01/24 04:24:09;;;;;;;53.30;20.27;;;;;;;-1.88;100.00;102214.53;4965769;28;20046;-69
2022/01/24 04:26:38;;;;;;;50.38;19.48;;;;;;;-1.88;100.00;102214.53;4975462;28;20074;-69
2022/01/24 04:29:07;;;;;;;49.70;21.38;;;;;;;-1.90;100.00;102217.38;4975338;28;20055;-69
2022/01/24 04:31:36;;;;;;;44.40;19.98;;;;;;;-1.91;100.00;102215.69;4974873;28;20417;-69
2022/01/24 04:34:04;;;;;;;45.85;20.33;;;;;;;-1.87;100.00;102216.22;4975628;28;20047;-69
2022/01/24 04:36:32;;;;;;;43.85;20.85;;;;;;;-1.87;100.00;102218.06;4974075;28;20051;-69
2022/01/24 04:39:00;;;;;;;40.95;18.83;;;;;;;-1.86;100.00;102228.63;4974547;28;20059;-69
2022/01/24 04:41:35;;;;;;;44.03;19.55;;;;;;;-1.88;100.00;102217.22;4974843;28;20077;-69
2022/01/24 04:54:58;;;;;;;56.28;21.35;;;;;;;-1.52;100.00;102235.94;4973963;28;20066;-69
2022/01/24 04:57:27;;;;;;;44.60;20.08;;;;;;;-1.34;100.00;102232.34;4974418;28;20051;-69
2022/01/24 04:59:57;;;;;;;52.45;23.23;;;;;;;-1.24;100.00;102243.81;4974885;28;20066;-69
2022/01/24 05:02:26;;;;;;;51.13;22.83;;;;;;;-1.18;100.00;102249.56;4965636;28;20412;-69
2022/01/24 05:04:56;;;;;;;56.67;24.33;;;;;;;-1.36;100.00;102253.16;4954651;28;20499;-69
2022/01/24 05:07:24;;;;;;;61.80;28.20;;;;;;;-1.41;100.00;102250.09;4959300;28;20043;-69
2022/01/24 05:10:04;;;;;;;71.05;30.52;;;;;;;-1.51;100.00;102242.16;4955051;28;20051;-69
2022/01/24 05:23:34;;;;;;;59.50;28.73;;;;;;;-2.56;100.00;102273.09;4954492;28;20516;-69
2022/01/24 05:26:04;;;;;;;64.68;29.27;;;;;;;-2.67;100.00;102278.66;4959682;28;20492;-69
2022/01/24 05:28:34;;;;;;;58.65;28.55;;;;;;;-2.92;100.00;102279.22;4956978;28;20062;-69
2022/01/24 05:31:04;;;;;;;52.80;25.42;;;;;;;-3.08;100.00;102271.78;4960651;28;20050;-69
2022/01/24 05:33:32;;;;;;;56.38;27.33;;;;;;;-3.26;100.00;102272.56;4956016;28;20051;-69
2022/01/24 05:36:00;;;;;;;58.97;27.40;;;;;;;-3.28;100.00;102279.88;4954422;28;20047;-69
2022/01/24 05:38:28;;;;;;;53.05;25.85;;;;;;;-3.38;100.00;102276.38;4963802;28;20036;-69
2022/01/24 05:41:02;;;;;;;58.03;26.80;;;;;;;-3.32;100.00;102269.63;4956772;28;20058;-69
2022/01/24 05:43:30;;;;;;;65.38;24.92;;;;;;;-3.33;100.00;102284.84;4956464;28;20051;-68
2022/01/24 05:45:58;;;;;;;60.38;23.45;;;;;;;-3.47;100.00;102282.63;4965119;28;20058;-68
2022/01/24 05:48:26;;;;;;;57.38;25.55;;;;;;;-3.36;100.00;102285.13;4960910;28;20517;-69
2022/01/24 05:50:53;;;;;;;65.07;26.88;;;;;;;-3.36;100.00;102285.13;4954369;28;20062;-68
2022/01/24 05:53:22;;;;;;;55.38;29.17;;;;;;;-3.32;100.00;102289.19;4961182;28;20053;-69
2022/01/24 05:55:50;;;;;;;60.80;28.05;;;;;;;-3.30;100.00;102289.06;4958093;28;20050;-69
2022/01/24 05:58:18;;;;;;;60.10;28.08;;;;;;;-3.32;100.00;102299.91;4958006;28;20513;-68
2022/01/24 06:00:46;;;;;;;57.47;26.77;;;;;;;-3.30;100.00;102297.09;4959808;28;20047;-68
2022/01/24 06:03:14;;;;;;;57.20;26.90;;;;;;;-3.24;100.00;102297.38;4965693;28;20046;-68
2022/01/24 06:05:42;;;;;;;59.10;27.17;;;;;;;-3.19;100.00;102296.91;4963887;28;20054;-68
2022/01/24 06:08:10;;;;;;;52.85;27.35;;;;;;;-3.19;100.00;102291.56;4967726;28;20036;-67
2022/01/24 06:10:39;;;;;;;54.50;25.27;;;;;;;-3.10;100.00;102305.91;4967278;28;20046;-67
2022/01/24 06:13:07;;;;;;;75.35;28.00;;;;;;;-3.08;100.00;102309.28;4962614;28;20417;-67
2022/01/24 06:15:35;;;;;;;63.97;28.70;;;;;;;-3.13;100.00;102311.59;4964835;28;20047;-67
2022/01/24 06:18:03;;;;;;;58.78;26.40;;;;;;;-3.21;100.00;102308.75;4969192;28;20054;-68
2022/01/24 06:20:31;;;;;;;55.72;27.65;;;;;;;-3.15;100.00;102317.06;4943415;28;20051;-68
2022/01/24 06:22:59;;;;;;;64.55;27.70;;;;;;;-3.05;100.00;102319.72;4952937;28;20047;-68
2022/01/24 06:25:29;;;;;;;54.03;28.88;;;;;;;-2.90;100.00;102332.63;4961733;28;20047;-68
2022/01/24 06:27:56;;;;;;;61.53;28.20;;;;;;;-2.89;100.00;102324.44;4953176;28;20059;-68
2022/01/24 06:30:25;;;;;;;57.80;27.90;;;;;;;-2.95;100.00;102332.25;4953342;28;20051;-68
2022/01/24 06:32:52;;;;;;;50.10;25.70;;;;;;;-2.88;100.00;102344.06;4952438;28;20502;-68
2022/01/24 06:35:20;;;;;;;54.35;26.98;;;;;;;-2.95;100.00;102342.97;4961348;28;20038;-68
2022/01/24 06:37:48;;;;;;;60.05;28.02;;;;;;;-2.98;100.00;102344.09;4960430;28;20422;-68
2022/01/24 06:40:16;;;;;;;54.03;25.70;;;;;;;-2.97;100.00;102345.78;4952327;28;20437;-68
2022/01/24 06:42:45;;;;;;;61.30;26.27;;;;;;;-3.00;100.00;102360.31;4953806;28;20402;-68
2022/01/24 06:45:13;;;;;;;56.67;27.13;;;;;;;-2.87;100.00;102360.00;4951991;28;20051;-67
2022/01/24 06:47:43;;;;;;;59.60;26.30;;;;;;;-3.03;100.00;102355.22;4951889;28;20066;-68
2022/01/24 06:50:11;;;;;;;61.22;26.75;;;;;;;-3.02;100.00;102362.31;4951009;28;20050;-67
2022/01/24 06:52:39;;;;;;;67.90;27.27;;;;;;;-3.11;100.00;102357.81;4954383;28;20502;-67
2022/01/24 06:55:07;;;;;;;54.28;25.70;;;;;;;-3.12;100.00;102367.66;4965447;28;20051;-67
2022/01/24 06:57:35;;;;;;;56.00;27.23;;;;;;;-3.02;100.00;102370.34;4968833;28;20046;-67
2022/01/24 07:00:05;;;;;;;63.08;27.65;;;;;;;-2.94;100.00;102377.63;4970836;28;20505;-67
2022/01/24 07:02:33;;;;;;;62.13;28.83;;;;;;;-2.95;100.00;102375.13;4953945;28;20497;-67
2022/01/24 07:05:01;;;;;;;51.78;25.15;;;;;;;-2.81;100.00;102384.50;4970119;28;20049;-67
2022/01/24 07:07:30;;;;;;;53.92;26.48;;;;;;;-2.70;100.00;102385.19;4968017;28;20061;-67
2022/01/24 07:09:58;;;;;;;60.75;26.88;;;;;;;-2.98;100.00;102379.75;4968293;28;20379;-68
2022/01/24 07:12:47;;;;;;;52.28;25.70;;;;;;;-2.78;100.00;102394.94;4953533;28;20416;-67
2022/01/24 07:15:17;;;;;;;52.42;25.55;;;;;;;-2.80;100.00;102399.63;4967441;28;20039;-67
2022/01/24 07:20:19;;;;;;;48.88;24.20;;;;;;;-2.82;100.00;102389.03;4968595;28;20053;-67
2022/01/24 07:22:46;;;;;;;61.17;29.35;;;;;;;-2.73;100.00;102398.03;4970854;28;20342;-67
2022/01/24 07:25:15;;;;;;;66.00;29.15;;;;;;;-2.75;100.00;102390.13;4969306;28;20054;-68
2022/01/24 07:27:42;;;;;;;56.03;29.05;;;;;;;-2.82;100.00;102405.13;4968736;28;20051;-68
2022/01/24 07:30:11;;;;;;;57.85;27.55;;;;;;;-2.89;100.00;102412.03;4967235;28;20389;-68
2022/01/24 07:32:44;;;;;;;69.35;29.00;;;;;;;-2.89;100.00;102414.72;4970012;28;20049;-68
2022/01/24 07:35:12;;;;;;;65.55;28.73;;;;;;;-2.66;100.00;102417.88;4968645;28;20402;-68
2022/01/24 07:37:40;;;;;;;57.85;28.33;;;;;;;-2.61;100.00;102412.94;4954883;28;20059;-68
2022/01/24 07:40:10;;;;;;;59.55;28.40;;;;;;;-2.66;100.00;102414.34;4957689;28;20494;-68
2022/01/24 07:45:26;;;;;;;52.08;24.85;;;;;;;-2.64;100.00;102420.44;4958493;28;20497;-68
2022/01/24 07:47:58;;;;;;;63.83;29.40;;;;;;;-2.56;100.00;102425.91;4962261;28;20070;-68
2022/01/24 07:50:28;;;;;;;54.58;26.40;;;;;;;-2.44;100.00;102430.09;4954755;28;20047;-68
2022/01/24 07:52:59;;;;;;;67.45;30.13;;;;;;;-2.54;100.00;102433.81;4955270;28;20043;-69
2022/01/24 07:55:28;;;;;;;60.70;25.20;;;;;;;-2.49;100.00;102426.16;4954946;28;20059;-68
2022/01/24 07:57:57;;;;;;;70.70;27.23;;;;;;;-2.64;100.00;102425.78;4954127;28;20051;-68
2022/01/24 08:00:27;;;;;;;62.22;25.33;;;;;;;-2.59;100.00;102439.59;4955105;28;20379;-68
2022/01/24 08:02:58;;;;;;;65.88;26.35;;;;;;;-2.52;100.00;102432.66;4957652;28;20048;-67
2022/01/24 08:05:27;;;;;;;59.00;25.35;;;;;;;-2.59;100.00;102436.94;4957164;28;20051;-68
2022/01/24 08:07:55;;;;;;;55.22;26.35;;;;;;;-2.37;100.00;102433.03;4955997;28;20039;-67
2022/01/24 08:10:23;;;;;;;63.58;27.50;;;;;;;-2.36;100.00;102432.03;4963895;28;20039;-68
2022/01/24 08:12:51;;;;;;;52.67;24.67;;;;;;;-2.48;100.00;102443.94;4959163;28;20478;-68
2022/01/24 08:15:19;;;;;;;62.03;25.45;;;;;;;-2.53;100.00;102433.66;4958137;28;20498;-68
2022/01/24 08:17:47;;;;;;;63.55;26.23;;;;;;;-2.51;100.00;102436.16;4955256;28;20046;-67
2022/01/24 08:20:16;;;;;;;61.10;28.35;;;;;;;-2.01;100.00;102434.97;4957874;28;20409;-67
2022/01/24 08:23:05;;;;;;;61.00;30.00;;;;;;;-1.94;100.00;102437.91;4947145;28;20043;-68
2022/01/24 08:25:33;;;;;;;54.38;25.48;;;;;;;-1.86;100.00;102435.28;4955598;28;20050;-68
2022/01/24 08:28:01;;;;;;;58.33;27.50;;;;;;;-1.63;100.00;102443.78;4955541;28;20520;-68
2022/01/24 08:30:29;;;;;;;55.13;26.77;;;;;;;-1.85;100.00;102433.47;4964709;28;20059;-68
2022/01/24 08:32:58;;;;;;;57.47;27.65;;;;;;;-1.92;100.00;102436.75;4954821;28;20043;-66
2022/01/24 08:35:26;;;;;;;62.03;28.83;;;;;;;-1.63;100.00;102443.78;4960641;28;20042;-68
2022/01/24 08:37:53;;;;;;;55.63;26.95;;;;;;;-1.28;100.00;102441.22;4954737;28;20054;-67
2022/01/24 08:40:25;;;;;;;62.42;28.75;;;;;;;-1.15;100.00;102440.84;4955899;28;20039;-68
2022/01/24 08:45:44;;;;;;;61.45;28.15;;;;;;;-1.10;100.00;102443.06;4955101;28;20043;-68
2022/01/24 08:48:14;;;;;;;53.42;26.77;;;;;;;-1.31;100.00;102436.19;4958655;28;20047;-68
2022/01/24 08:50:44;;;;;;;56.03;27.30;;;;;;;-1.33;100.00;102448.09;4954671;28;20509;-68
2022/01/24 08:53:12;;;;;;;52.25;25.75;;;;;;;-1.26;100.00;102444.59;4954337;28;20059;-68
2022/01/24 08:55:41;;;;;;;57.15;25.80;;;;;;;-1.12;100.00;102445.91;4954203;28;20074;-68
2022/01/24 08:58:13;;;;;;;59.10;28.42;;;;;;;-0.92;100.00;102434.13;4954460;28;20051;-67
2022/01/24 09:00:45;;;;;;;57.92;26.75;;;;;;;-0.83;100.00;102439.41;4954834;28;20402;-67
2022/01/24 09:03:13;;;;;;;57.72;28.27;;;;;;;-0.47;100.00;102438.44;4955766;28;20055;-68
2022/01/24 09:05:42;;;;;;;58.28;27.88;;;;;;;-0.54;100.00;102445.44;4954292;28;20046;-67
2022/01/24 09:08:10;;;;;;;54.25;27.38;;;;;;;-0.26;100.00;102447.94;4961913;28;20051;-67
2022/01/24 09:10:39;;;;;;;56.00;27.08;;;;;;;-0.22;100.00;102445.78;4964690;28;20055;-67
2022/01/24 09:13:08;;;;;;;59.53;27.55;;;;;;;-0.18;100.00;102452.53;4954393;28;20406;-67
2022/01/24 09:15:36;;;;;;;50.85;25.58;;;;;;;-0.27;100.00;102448.97;4953987;28;20055;-68
2022/01/24 09:18:04;;;;;;;53.47;26.70;;;;;;;-0.70;100.00;102452.44;4954665;28;20691;-68
2022/01/24 09:20:34;;;;;;;52.13;27.25;;;;;;;-0.92;100.00;102450.25;4954458;28;20469;-67
2022/01/24 09:23:02;;;;;;;57.38;27.30;;;;;;;-0.84;100.00;102453.84;4954783;28;20051;-68
2022/01/24 09:25:30;;;;;;;58.00;28.60;;;;;;;-0.59;100.00;102454.00;4954148;28;20051;-68
2022/01/24 09:27:58;;;;;;;57.08;26.92;;;;;;;-0.68;100.00;102457.66;4953684;28;20054;-68
2022/01/24 09:30:26;;;;;;;54.03;27.98;;;;;;;-0.55;100.00;102460.75;4953286;28;20043;-68
2022/01/24 09:32:54;;;;;;;57.42;27.80;;;;;;;-0.39;100.00;102466.38;4952846;28;20054;-68
2022/01/24 09:35:23;;;;;;;56.17;27.92;;;;;;;-0.30;100.00;102457.34;4960321;28;20117;-69
2022/01/24 09:37:51;;;;;;;58.33;29.73;;;;;;;-0.62;100.00;102470.47;4960919;28;20070;-68
2022/01/24 09:40:20;;;;;;;62.50;28.13;;;;;;;-0.23;100.00;102473.69;4955195;28;20097;-68
2022/01/24 09:42:48;;;;;;;63.50;28.77;;;;;;;-0.11;100.00;102467.03;4931732;28;20072;-67
2022/01/24 09:45:17;;;;;;;63.20;29.08;;;;;;;-0.09;100.00;102470.41;4953344;28;20051;-68
2022/01/24 09:47:46;;;;;;;59.60;28.45;;;;;;;-0.08;100.00;102469.41;4935985;28;20039;-67
2022/01/24 09:50:15;;;;;;;62.58;29.17;;;;;;;0.10;100.00;102471.97;4953674;28;20716;-68
2022/01/24 09:52:44;;;;;;;60.00;29.85;;;;;;;0.85;100.00;102468.59;4954089;28;20062;-67
2022/01/24 09:55:14;;;;;;;67.65;28.60;;;;;;;0.80;100.00;102469.94;4956298;28;20059;-67
2022/01/24 09:57:43;;;;;;;61.97;30.15;;;;;;;1.00;100.00;102466.91;4953506;28;20050;-68
2022/01/24 10:00:14;;;;;;;59.13;27.77;;;;;;;0.66;100.00;102484.06;4955996;28;20058;-68
2022/01/24 10:02:43;;;;;;;56.63;28.42;;;;;;;0.77;100.00;102483.75;4952797;28;20055;-67
2022/01/24 10:05:37;;;;;;;58.70;27.92;;;;;;;1.14;100.00;102481.56;4957861;28;20047;-68
2022/01/24 10:08:26;;;;;;;55.67;26.98;;;;;;;1.49;100.00;102481.34;4952977;28;20063;-68
2022/01/24 10:10:56;;;;;;;57.58;26.25;;;;;;;0.97;100.00;102483.41;4964648;28;20066;-68
2022/01/24 10:16:36;;;;;;;53.22;28.25;;;;;;;0.68;100.00;102479.34;4956427;28;20047;-68
2022/01/24 10:19:19;;;;;;;57.58;27.48;;;;;;;0.65;100.00;102483.22;4954743;28;20074;-67
2022/01/24 10:22:02;;;;;;;63.72;28.75;;;;;;;0.89;100.00;102467.25;4958024;28;20043;-68
2022/01/24 10:24:41;;;;;;;61.58;29.48;;;;;;;1.19;100.00;102467.56;4957857;28;20490;-67
2022/01/24 10:27:19;;;;;;;68.43;31.38;;;;;;;1.01;100.00;102465.03;4954742;28;20070;-67
2022/01/24 10:30:00;;;;;;;59.33;29.13;;;;;;;1.38;100.00;102470.91;4956175;28;20039;-69
2022/01/24 10:32:38;;;;;;;65.45;29.30;;;;;;;1.33;100.00;102458.78;4958725;28;20054;-67
2022/01/24 10:35:26;;;;;;;70.65;30.25;;;;;;;1.38;100.00;102458.28;4954131;28;20402;-68
2022/01/24 10:43:40;;;;;;;59.85;27.75;;;;;;;0.51;100.00;102456.94;4951071;28;20406;-67
2022/01/24 10:46:10;;;;;;;64.70;29.95;;;;;;;0.82;100.00;102447.38;4964937;28;20051;-67
2022/01/24 10:48:42;;;;;;;58.38;28.67;;;;;;;1.15;100.00;102448.19;4954475;28;20059;-68
2022/01/24 10:51:15;;;;;;;65.18;30.40;;;;;;;1.11;100.00;102437.94;4960043;28;20070;-67
2022/01/24 10:53:55;;;;;;;64.72;29.52;;;;;;;0.94;100.00;102440.63;4958196;28;20055;-67
2022/01/24 10:56:26;;;;;;;59.20;30.15;;;;;;;0.93;100.00;102437.09;4954926;28;20472;-67
2022/01/24 10:59:06;;;;;;;56.03;29.20;;;;;;;0.95;100.00;102431.53;4955214;28;20406;-67
2022/01/24 11:01:34;;;;;;;61.08;33.63;;;;;;;0.88;100.00;102439.44;4957677;28;20062;-67
2022/01/24 11:04:05;;;;;;;65.40;30.23;;;;;;;1.01;100.00;102441.63;4956374;28;20419;-67
2022/01/24 11:06:37;;;;;;;61.40;29.10;;;;;;;0.88;100.00;102444.84;4954607;28;20047;-67
2022/01/24 11:09:26;;;;;;;55.70;28.88;;;;;;;1.27;100.00;102437.06;4961811;28;20043;-67
2022/01/24 11:12:07;;;;;;;55.33;28.65;;;;;;;1.68;100.00;102446.88;4973328;28;20055;-67
2022/01/24 11:14:41;;;;;;;58.72;29.27;;;;;;;2.04;100.00;102441.00;4970191;28;20043;-67
2022/01/24 11:17:13;;;;;;;62.13;28.80;;;;;;;2.25;100.00;102445.78;4972231;28;20050;-67
2022/01/24 11:19:48;;;;;;;57.70;30.13;;;;;;;2.47;99.29;102443.28;4969336;28;20062;-67
2022/01/24 11:22:24;;;;;;;57.80;29.65;;;;;;;2.10;100.00;102437.59;4968888;28;20047;-67
2022/01/24 11:25:12;;;;;;;;;;;;;;;2.25;100.00;102426.03;4967101;28;20402;-67
2022/01/24 11:27:47;;;;;;;54.95;29.05;;;;;;;2.64;99.70;102435.88;4963176;28;19937;-67
2022/01/24 11:30:19;;;;;;;61.05;30.92;;;;;;;2.79;97.63;102421.59;4966925;28;20490;-67
2022/01/24 11:33:20;;;;;;;65.05;31.77;;;;;;;2.68;98.70;102429.09;4968042;28;20051;-67
2022/01/24 11:35:54;;;;;;;57.92;28.13;;;;;;;2.84;99.75;102424.59;4953054;28;20057;-67
2022/01/24 11:38:35;;;;;;;55.38;29.08;;;;;;;3.13;96.72;102425.66;4957649;28;20046;-67
2022/01/24 11:41:25;;;;;;;59.95;31.38;;;;;;;3.40;95.60;102423.38;4959134;28;20517;-68
2022/01/24 11:44:06;;;;;;;61.53;30.83;;;;;;;3.30;94.60;102420.09;4959955;28;20051;-67
2022/01/24 11:46:52;;;;;;;58.60;30.70;;;;;;;3.41;93.90;102424.22;4958421;28;20486;-68
2022/01/24 11:49:27;;;;;;;56.85;30.40;;;;;;;3.37;94.44;102426.44;4953917;28;20414;-67
2022/01/24 11:52:10;;;;;;;64.63;30.50;;;;;;;3.40;92.93;102422.50;4953630;28;20062;-67
2022/01/24 11:55:31;;;;;;;60.70;30.90;;;;;;;3.60;92.75;102422.81;4956192;28;20406;-67
2022/01/24 11:57:44;;;;;;;59.15;30.35;;;;;;;3.96;91.00;102419.31;4959660;28;20047;-67
2022/01/24 12:00:18;;;;;;;58.58;29.35;;;;;;;3.95;91.67;102424.94;4959312;28;20406;-67
2022/01/24 12:02:56;;;;;;;60.88;31.73;;;;;;;3.82;91.27;102421.00;4954275;28;20066;-67
2022/01/24 12:05:26;;;;;;;58.45;29.65;;;;;;;4.18;90.05;102419.34;4955603;28;20656;-67
2022/01/24 12:08:04;;;;;;;56.63;30.05;;;;;;;3.96;91.22;102416.59;4957032;28;20051;-68
2022/01/24 12:10:54;;;;;;;61.40;30.98;;;;;;;4.22;91.70;102415.25;4964878;28;20061;-68
2022/01/24 12:13:30;;;;;;;73.38;32.38;;;;;;;4.26;92.66;102402.13;4954321;28;20055;-69
2022/01/24 12:16:02;;;;;;;59.53;31.52;;;;;;;4.55;90.68;102411.19;4958290;28;20047;-67
2022/01/24 12:18:30;;;;;;;56.63;31.08;;;;;;;4.51;91.96;102404.47;4966578;28;20058;-67
2022/01/24 12:21:01;;;;;;;58.05;30.75;;;;;;;4.78;88.94;102408.25;4953823;28;20046;-68
2022/01/24 12:23:37;;;;;;;60.17;31.20;;;;;;;4.82;88.38;102404.13;4955981;28;20062;-67
2022/01/24 12:26:25;;;;;;;61.83;31.67;;;;;;;4.88;89.27;102412.53;4957002;28;20494;-67
2022/01/24 12:29:01;;;;;;;59.30;31.45;;;;;;;5.29;87.44;102406.34;4960640;28;20054;-67
2022/01/24 12:31:37;;;;;;;61.70;31.50;;;;;;;5.18;86.97;102424.00;4956141;28;20051;-67
2022/01/24 12:34:18;;;;;;;57.63;31.90;;;;;;;5.40;86.37;102414.94;4960680;28;20058;-68
2022/01/24 12:37:02;;;;;;;63.28;30.17;;;;;;;5.06;87.92;102406.59;4953675;28;20418;-68
2022/01/24 12:39:46;;;;;;;;;;;;;;;4.86;88.90;102410.00;4962853;28;20043;-67
2022/01/24 13:54:29;;;;;;;61.10;30.98;;;;;;;4.19;98.80;102437.28;4955608;23;20489;-72
2022/01/24 13:57:08;;;;;;;71.97;32.67;;;;;;;4.13;98.65;102451.59;4948466;28;20040;-73
2022/01/24 13:59:36;;;;;;;72.95;32.90;;;;;;;4.10;99.21;102449.28;4938933;29;20051;-73
2022/01/24 14:02:09;;;;;;;68.97;31.77;;;;;;;3.86;100.00;102454.00;4948701;28;20050;-74
2022/01/24 14:04:50;;;;;;;67.53;31.83;;;;;;;3.98;99.13;102440.78;4952624;29;20047;-73
2022/01/24 14:07:23;;;;;;;72.82;32.22;;;;;;;3.91;100.00;102448.81;4941370;29;20055;-73
2022/01/24 14:09:54;;;;;;;68.20;32.40;;;;;;;3.86;100.00;102448.56;4957819;28;20059;-74
2022/01/24 14:12:55;;;;;;;67.35;31.88;;;;;;;3.86;100.00;102456.69;4953013;28;20303;-73
2022/01/24 14:20:41;;;;;;;67.45;32.70;;;;;;;3.85;100.00;102457.69;4935296;29;20063;-73
2022/01/24 14:23:35;;;;;;;75.40;31.23;;;;;;;3.92;100.00;102452.38;4912843;29;20058;-74
2022/01/24 14:26:24;;;;;;;60.63;31.35;;;;;;;4.06;100.00;102453.41;4951038;29;20784;-73
2022/01/24 14:29:09;;;;;;;60.70;27.77;;;;;;;4.01;100.00;102459.38;4937314;29;20048;-72
2022/01/24 14:31:38;;;;;;;63.97;31.08;;;;;;;4.02;100.00;102464.59;4947110;29;20058;-73
2022/01/24 14:34:07;;;;;;;66.78;29.55;;;;;;;3.99;100.00;102464.13;4940064;29;20062;-72
2022/01/24 14:36:36;;;;;;;64.07;30.13;;;;;;;3.97;99.93;102471.63;4939759;29;20067;-75
2022/01/24 14:39:06;;;;;;;76.43;32.60;;;;;;;3.87;100.00;102470.03;4940931;28;20050;-74